createdAt,value
2019-01-22T00:04:09.389Z,82.20
2019-01-22T00:09:13.243Z,80.70
2019-01-22T00:14:16.917Z,88.73
2019-01-22T00:19:20.932Z,83.93
2019-01-22T00:24:24.614Z,86.50
2019-01-22T00:29:28.748Z,78.37
2019-01-22T00:34:32.482Z,84.77
2019-01-22T00:39:36.539Z,85.87
2019-01-22T00:44:40.283Z,94.07
2019-01-22T00:49:44.308Z,99.13
2019-01-22T00:54:47.986Z,83.37
2019-01-22T00:59:54.485Z,93.87
2019-01-22T01:04:58.268Z,94.17
2019-01-22T01:10:01.965Z,90.27
2019-01-22T01:15:07.951Z,87.83
2019-01-22T01:20:14.026Z,93.07
2019-01-22T01:25:19.820Z,91.07
2019-01-22T01:30:25.424Z,91.73
2019-01-22T01:35:29.536Z,92.40
2019-01-22T01:40:33.227Z,94.20
2019-01-22T01:45:36.999Z,89.27
2019-01-22T01:50:41.011Z,93.47
2019-01-22T01:55:45.520Z,96.07
2019-01-22T02:00:49.248Z,86.83
2019-01-22T02:05:53.269Z,104.13
2019-01-22T02:10:57.222Z,88.20
2019-01-22T02:16:11.894Z,89.80
2019-01-22T02:22:01.940Z,87.07
2019-01-22T02:27:39.541Z,90.77
2019-01-22T02:33:07.217Z,98.00
2019-01-22T02:38:58.214Z,96.83
2019-01-22T02:44:35.344Z,84.13
2019-01-22T02:49:59.624Z,90.10
2019-01-22T02:55:09.025Z,83.73
2019-01-22T03:00:57.481Z,86.47
2019-01-22T03:06:26.358Z,83.27
2019-01-22T03:12:02.214Z,95.00
2019-01-22T03:17:45.423Z,98.63
2019-01-22T03:23:31.126Z,92.07
2019-01-22T03:29:05.263Z,93.80
2019-01-22T03:34:13.898Z,95.70
2019-01-22T03:39:41.975Z,99.00
2019-01-22T03:45:06.638Z,98.03
2019-01-22T03:50:43.422Z,89.37
2019-01-22T03:56:00.215Z,87.77
2019-01-22T04:01:16.358Z,89.07
2019-01-22T04:06:35.116Z,87.60
2019-01-22T04:11:43.762Z,88.60
2019-01-22T04:16:47.454Z,90.20
2019-01-22T04:21:51.355Z,91.17
2019-01-22T04:27:17.896Z,88.73
2019-01-22T04:32:27.550Z,91.80
2019-01-22T04:37:58.414Z,94.87
2019-01-22T04:43:27.431Z,76.90
2019-01-22T04:48:56.839Z,79.80
2019-01-22T04:54:37.980Z,87.30
2019-01-22T04:59:58.263Z,87.23
2019-01-22T05:05:33.843Z,89.43
2019-01-22T05:11:06.776Z,81.07
2019-01-22T05:16:29.477Z,95.07
2019-01-22T05:22:04.063Z,91.67
2019-01-22T05:27:26.615Z,109.43
2019-01-22T05:32:40.998Z,100.03
2019-01-22T05:38:10.967Z,91.13
2019-01-22T05:43:35.893Z,111.60
2019-01-22T05:49:02.988Z,109.23
2019-01-22T05:54:25.089Z,115.70
2019-01-22T05:59:58.198Z,122.07
2019-01-22T06:05:49.812Z,117.57
2019-01-22T06:11:39.341Z,109.67
2019-01-22T06:16:54.924Z,100.13
2019-01-22T06:22:31.709Z,98.37
2019-01-22T06:27:48.752Z,108.57
2019-01-22T06:33:16.412Z,106.57
2019-01-22T06:38:58.492Z,123.83
2019-01-22T06:44:47.662Z,116.03
2019-01-22T06:50:12.899Z,108.87
2019-01-22T06:55:51.830Z,104.13
2019-01-22T07:01:34.262Z,114.70
2019-01-22T07:07:07.062Z,117.37
2019-01-22T07:12:22.974Z,116.03
2019-01-22T07:17:44.933Z,116.13
2019-01-22T07:23:15.905Z,115.03
2019-01-22T07:28:54.402Z,124.70
2019-01-22T07:34:17.949Z,108.60
2019-01-22T07:39:32.413Z,99.23
2019-01-22T07:45:23.721Z,96.47
2019-01-22T07:51:03.756Z,94.87
2019-01-22T07:56:32.952Z,88.87
2019-01-22T08:02:03.962Z,87.07
2019-01-22T08:07:53.162Z,85.73
2019-01-22T08:13:24.660Z,84.17
2019-01-22T08:18:51.727Z,90.30
2019-01-22T08:24:10.227Z,83.40
2019-01-22T08:29:37.854Z,82.20
2019-01-22T08:35:16.833Z,79.27
2019-01-22T08:40:53.709Z,82.40
2019-01-22T08:46:38.627Z,78.93
2019-01-22T08:52:00.076Z,80.93
2019-01-22T08:57:31.965Z,70.20
2019-01-22T09:02:57.487Z,75.10
2019-01-22T09:08:51.696Z,72.17
2019-01-22T09:14:36.478Z,67.70
2019-01-22T09:20:27.379Z,72.73
2019-01-22T09:25:42.907Z,69.80
2019-01-22T09:31:07.004Z,68.37
2019-01-22T09:36:53.516Z,73.00
2019-01-22T09:41:57.271Z,69.30
2019-01-22T09:47:01.349Z,69.07
2019-01-22T09:52:05.120Z,71.37
2019-01-22T09:57:09.133Z,68.43
2019-01-22T10:02:13.321Z,68.20
2019-01-22T10:07:17.012Z,67.00
2019-01-22T10:12:21.148Z,68.07
2019-01-22T10:17:26.782Z,65.97
2019-01-22T10:22:30.488Z,70.47
2019-01-22T10:27:34.209Z,65.93
2019-01-22T10:32:37.931Z,70.60
2019-01-22T10:37:42.013Z,72.50
2019-01-22T10:42:45.720Z,67.80
2019-01-22T10:47:49.405Z,68.07
2019-01-22T10:52:53.157Z,64.70
2019-01-22T10:57:57.083Z,63.83
2019-01-22T11:03:00.804Z,62.53
2019-01-22T11:08:04.745Z,67.30
2019-01-22T11:13:08.497Z,65.10
2019-01-22T11:18:12.543Z,66.10
2019-01-22T11:23:16.252Z,64.03
2019-01-22T11:28:20.334Z,66.00
2019-01-22T11:33:24.363Z,59.87
2019-01-22T11:38:28.103Z,63.57
2019-01-22T11:43:32.215Z,62.20
2019-01-22T11:48:36.317Z,60.13
2019-01-22T11:53:40.063Z,58.17
2019-01-22T11:58:43.736Z,58.30
2019-01-22T12:03:47.457Z,60.80
2019-01-22T12:08:51.151Z,60.80
2019-01-22T12:13:54.830Z,63.07
2019-01-22T12:18:58.924Z,56.23
2019-01-22T12:24:02.628Z,60.00
2019-01-22T12:29:06.876Z,54.27
2019-01-22T12:34:10.732Z,58.20
2019-01-22T12:39:14.632Z,55.70
2019-01-22T12:44:18.392Z,55.23
2019-01-22T12:49:22.255Z,52.70
2019-01-22T12:54:26.052Z,54.40
2019-01-22T12:59:31.333Z,52.97
2019-01-22T13:04:35.219Z,52.70
2019-01-22T13:09:39.449Z,52.70
2019-01-22T13:14:44.012Z,55.03
2019-01-22T13:19:47.803Z,55.57
2019-01-22T13:24:51.571Z,52.00
2019-01-22T13:30:01.153Z,52.47
2019-01-22T13:35:00.631Z,56.10
2019-01-22T13:40:07.375Z,50.23
2019-01-22T13:45:14.625Z,54.43
2019-01-22T13:50:19.500Z,52.40
2019-01-22T13:55:29.079Z,51.53
2019-01-22T14:00:32.785Z,46.63
2019-01-22T14:05:36.523Z,48.67
2019-01-22T14:10:40.531Z,50.13
2019-01-22T14:15:44.264Z,51.43
2019-01-22T14:20:48.027Z,62.90
2019-01-22T14:25:52.324Z,61.37
2019-01-22T14:30:56.032Z,53.47
2019-01-22T14:35:59.758Z,56.90
2019-01-22T14:41:04.138Z,57.83
2019-01-22T14:46:07.961Z,60.83
2019-01-22T14:51:11.921Z,55.07
2019-01-22T14:56:15.855Z,56.87
2019-01-22T15:01:19.601Z,59.17
2019-01-22T15:06:23.393Z,45.43
2019-01-22T15:11:27.392Z,50.63
2019-01-22T15:16:31.391Z,61.30
2019-01-22T15:21:35.090Z,58.30
2019-01-22T15:26:40.986Z,60.10
2019-01-22T15:31:45.644Z,57.50
2019-01-22T15:36:49.763Z,61.00
2019-01-22T15:41:53.490Z,68.17
2019-01-22T15:46:57.218Z,70.73
2019-01-22T15:52:01.309Z,65.27
2019-01-22T15:57:05.379Z,59.47
2019-01-22T16:02:09.129Z,72.17
2019-01-22T16:07:12.843Z,60.80
2019-01-22T16:12:16.539Z,64.63
2019-01-22T16:17:20.288Z,63.63
2019-01-22T16:22:24.277Z,65.67
2019-01-22T16:27:27.943Z,58.13
2019-01-22T16:32:31.615Z,64.67
2019-01-22T16:37:35.649Z,64.07
2019-01-22T16:42:39.356Z,62.27
2019-01-22T16:47:43.073Z,66.07
2019-01-22T16:52:46.867Z,71.30
2019-01-22T16:57:50.576Z,65.93
2019-01-22T17:02:54.549Z,61.97
2019-01-22T17:07:58.427Z,67.40
2019-01-22T17:13:02.127Z,75.27
2019-01-22T17:18:10.942Z,67.27
2019-01-22T17:23:23.350Z,59.40
2019-01-22T17:28:28.777Z,70.17
2019-01-22T17:33:42.427Z,68.40
2019-01-22T17:38:46.208Z,59.37
2019-01-22T17:43:49.939Z,67.37
2019-01-22T17:48:55.778Z,74.13
2019-01-22T17:53:59.572Z,70.13
2019-01-22T17:59:03.261Z,65.80
2019-01-22T18:04:07.095Z,63.27
2019-01-22T18:09:11.400Z,65.13
2019-01-22T18:14:15.153Z,69.83
2019-01-22T18:19:23.811Z,63.17
2019-01-22T18:24:24.246Z,62.47
2019-01-22T18:29:27.977Z,67.07
2019-01-22T18:34:32.505Z,63.37
2019-01-22T18:39:36.205Z,64.57
2019-01-22T18:44:40.204Z,64.93
2019-01-22T18:49:43.909Z,70.67
2019-01-22T18:54:47.621Z,70.33
2019-01-22T18:59:51.323Z,68.30
2019-01-22T19:04:55.108Z,65.50
2019-01-22T19:09:58.956Z,66.27
2019-01-22T19:15:03.463Z,59.93
2019-01-22T19:20:07.657Z,64.33
2019-01-22T19:25:19.985Z,66.33
2019-01-22T19:30:25.770Z,68.90
2019-01-22T19:35:29.556Z,67.40
2019-01-22T19:40:33.643Z,69.87
2019-01-22T19:45:37.665Z,68.43
2019-01-22T19:50:41.355Z,66.10
2019-01-22T19:55:45.398Z,61.47
2019-01-22T20:00:49.458Z,57.13
2019-01-22T20:05:53.322Z,58.97
2019-01-22T20:10:58.315Z,67.50
2019-01-22T20:16:02.336Z,65.50
2019-01-22T20:21:06.572Z,65.57
2019-01-22T20:26:10.287Z,70.40
2019-01-22T20:31:14.238Z,66.03
2019-01-22T20:36:18.251Z,61.63
2019-01-22T20:41:22.007Z,67.10
2019-01-22T20:46:25.950Z,62.70
2019-01-22T20:51:29.656Z,63.27
2019-01-22T20:56:33.381Z,52.60
2019-01-22T21:01:37.580Z,64.80
2019-01-22T21:06:41.325Z,61.70
2019-01-22T21:11:45.046Z,61.20
2019-01-22T21:16:48.763Z,58.70
2019-01-22T21:21:52.472Z,60.10
2019-01-22T21:26:56.532Z,66.13
2019-01-22T21:32:00.237Z,58.20
2019-01-22T21:37:04.094Z,60.70
2019-01-22T21:42:08.274Z,62.57
2019-01-22T21:47:12.285Z,61.73
2019-01-22T21:52:15.948Z,58.73
2019-01-22T21:57:19.690Z,53.50
2019-01-22T22:02:23.402Z,60.77
2019-01-22T22:07:27.195Z,52.63
2019-01-22T22:12:31.128Z,53.40
2019-01-22T22:17:34.814Z,54.00
2019-01-22T22:22:38.509Z,54.10
2019-01-22T22:27:42.314Z,34.17
2019-01-22T22:32:46.235Z,54.03
2019-01-22T22:37:49.923Z,43.00
2019-01-22T22:42:53.731Z,48.03
2019-01-22T22:47:57.479Z,45.37
2019-01-22T22:53:01.188Z,56.27
2019-01-22T22:58:05.239Z,43.40
2019-01-22T23:03:09.464Z,45.23
2019-01-22T23:08:13.406Z,43.73
2019-01-22T23:13:17.509Z,39.77
2019-01-22T23:18:21.810Z,39.43
2019-01-22T23:23:25.684Z,42.43
2019-01-22T23:28:29.353Z,40.33
2019-01-22T23:33:33.046Z,44.60
2019-01-22T23:38:37.039Z,41.93
2019-01-22T23:43:40.740Z,42.70
2019-01-22T23:48:45.517Z,41.97
2019-01-22T23:53:49.207Z,41.17
2019-01-22T23:58:52.925Z,42.43
